createdAt,value
2022-11-20T00:21:58.165Z,8.33
2022-11-20T00:50:59.644Z,8.21
2022-11-20T01:20:03.531Z,8.12
2022-11-20T01:49:06.238Z,8.03
2022-11-20T02:18:09.404Z,7.95
2022-11-20T02:47:13.493Z,7.88
2022-11-20T03:16:14.363Z,7.87
2022-11-20T03:45:13.435Z,7.84
2022-11-20T04:14:16.018Z,7.75
2022-11-20T04:43:11.756Z,7.73
2022-11-20T05:12:14.520Z,7.66
2022-11-20T05:41:18.168Z,7.53
2022-11-20T06:10:29.415Z,7.54
2022-11-20T06:39:34.273Z,7.58
2022-11-20T07:08:37.783Z,7.53
2022-11-20T07:37:34.653Z,7.62
2022-11-20T08:06:37.683Z,7.66
2022-11-20T08:35:38.123Z,7.72
2022-11-20T09:04:46.446Z,7.93
2022-11-20T09:33:49.441Z,8.06
2022-11-20T10:02:55.792Z,8.62
2022-11-20T10:32:01.112Z,8.69
2022-11-20T11:00:55.555Z,9.11
2022-11-20T11:29:59.852Z,9.45
2022-11-20T11:59:00.019Z,9.35
2022-11-20T12:27:53.614Z,9.58
2022-11-20T12:57:04.453Z,9.77
2022-11-20T13:25:36.250Z,9.7
2022-11-20T13:54:29.474Z,9.7
2022-11-20T14:23:30.805Z,9.36
2022-11-20T14:51:48.545Z,9.03
2022-11-20T15:20:35.998Z,8.82
2022-11-20T15:49:34.935Z,8.71
2022-11-20T16:18:38.715Z,8.7
2022-11-20T16:47:38.985Z,8.6
2022-11-20T17:16:37.466Z,8.61
2022-11-20T17:45:36.977Z,8.53
2022-11-20T18:14:30.649Z,8
2022-11-20T18:43:27.245Z,7.94
2022-11-20T19:11:58.109Z,7.39
2022-11-20T19:40:47.907Z,7.42
2022-11-20T20:09:38.728Z,7.51
2022-11-20T20:38:32.579Z,7.33
2022-11-20T21:07:21.046Z,7.26
2022-11-20T21:36:14.454Z,7.18
2022-11-20T22:05:17.679Z,7.08
2022-11-20T22:34:22.752Z,7
2022-11-20T23:02:58.830Z,7.14
2022-11-20T23:32:03.256Z,6.93
